Time,TemperatureF,DewpointF,PressureIn,WindDirection,WindDirectionDegrees,WindSpeedMPH,WindSpeedGustMPH,Humidity,HourlyPrecipIn,Conditions,Clouds,dailyrainin,SoftwareType,DateUTC
2013-01-30 00:03:00,28.0,22.9,29.71,North,355,2.4,7.6,81,0.00,,,0.00,WUHU21623XXSP,2013-01-30 06:03:00,
2013-01-30 00:08:00,28.0,22.9,29.70,North,0,4.5,10.3,81,0.00,,,0.00,WUHU21623XXSP,2013-01-30 06:08:00,
2013-01-30 00:13:00,27.9,22.7,29.72,NNW,336,2.1,10.3,81,0.00,,,0.00,WUHU21623XXSP,2013-01-30 06:13:00,
2013-01-30 00:19:00,27.7,22.6,29.70,NNE,24,3.3,8.1,81,0.00,,,0.00,WUHU21623XXSP,2013-01-30 06:19:00,
2013-01-30 00:24:00,27.7,22.6,29.68,NW,315,6.3,6.3,81,0.00,,,0.00,WUHU21623XXSP,2013-01-30 06:24:00,
2013-01-30 00:29:00,27.5,22.4,29.68,North,0,3.8,6.3,81,0.00,,,0.00,WUHU21623XXSP,2013-01-30 06:29:00,
2013-01-30 00:34:00,27.5,22.4,29.70,NNW,337,5.8,6.3,81,0.00,,,0.00,WUHU21623XXSP,2013-01-30 06:34:00,
2013-01-30 00:39:00,27.3,22.2,29.70,NE,45,10.1,10.1,81,0.00,,,0.00,WUHU21623XXSP,2013-01-30 06:39:00,
2013-01-30 00:44:00,27.1,22.0,29.70,NW,315,3.8,10.1,81,0.00,,,0.00,WUHU21623XXSP,2013-01-30 06:44:00,
2013-01-30 00:49:00,27.1,22.0,29.69,NNE,15,3.9,8.5,81,0.00,,,0.00,WUHU21623XXSP,2013-01-30 06:49:00,
2013-01-30 00:54:00,27.1,22.0,29.68,NNE,22,9.6,9.6,81,0.00,,,0.00,WUHU21623XXSP,2013-01-30 06:54:00,
2013-01-30 00:59:00,27.0,21.6,29.67,NNE,22,5.8,9.6,80,0.00,,,0.00,WUHU21623XXSP,2013-01-30 06:59:00,
2013-01-30 01:04:00,26.8,21.4,29.67,ENE,67,6.0,6.0,80,0.00,,,0.00,WUHU21623XXSP,2013-01-30 07:04:00,
2013-01-30 01:09:00,26.6,21.2,29.66,North,359,3.8,10.5,80,0.00,,,0.00,WUHU21623XXSP,2013-01-30 07:09:00,
2013-01-30 01:14:00,26.4,21.0,29.66,NNE,15,4.2,10.5,80,0.00,,,0.00,WUHU21623XXSP,2013-01-30 07:14:00,
2013-01-30 01:19:00,26.4,21.0,29.67,NNE,22,6.0,8.3,80,0.00,,,0.00,WUHU21623XXSP,2013-01-30 07:19:00,
2013-01-30 01:24:00,26.2,20.9,29.67,NE,45,6.0,8.3,80,0.00,,,0.00,WUHU21623XXSP,2013-01-30 07:24:00,
2013-01-30 01:29:00,26.1,20.7,29.67,NE,45,5.1,13.2,80,0.00,,,0.00,WUHU21623XXSP,2013-01-30 07:29:00,
2013-01-30 01:34:00,25.9,20.6,29.67,NE,45,4.4,13.2,80,0.00,,,0.00,WUHU21623XXSP,2013-01-30 07:34:00,
2013-01-30 01:39:00,25.9,20.6,29.67,NE,45,2.9,10.1,80,0.00,,,0.00,WUHU21623XXSP,2013-01-30 07:39:00,
2013-01-30 01:44:00,25.7,20.4,29.67,NE,45,3.0,6.5,80,0.00,,,0.00,WUHU21623XXSP,2013-01-30 07:44:00,
2013-01-30 01:49:00,25.5,20.2,29.67,NE,45,3.1,6.5,80,0.00,,,0.00,WUHU21623XXSP,2013-01-30 07:49:00,
2013-01-30 01:54:00,25.5,20.2,29.67,NE,45,2.7,7.6,80,0.00,,,0.00,WUHU21623XXSP,2013-01-30 07:54:00,
2013-01-30 01:59:00,25.3,20.3,29.68,NE,45,3.4,7.6,81,0.00,,,0.00,WUHU21623XXSP,2013-01-30 07:59:00,
2013-01-30 02:04:00,25.3,20.3,29.67,NE,45,6.3,8.3,81,0.00,,,0.00,WUHU21623XXSP,2013-01-30 08:04:00,
2013-01-30 02:09:00,25.2,20.2,29.66,NE,45,3.4,8.3,81,0.00,,,0.00,WUHU21623XXSP,2013-01-30 08:09:00,
2013-01-30 02:14:00,25.2,20.2,29.67,NE,45,2.9,6.3,81,0.00,,,0.00,WUHU21623XXSP,2013-01-30 08:14:00,
2013-01-30 02:19:00,25.0,20.0,29.68,NE,45,9.6,11.4,81,0.00,,,0.00,WUHU21623XXSP,2013-01-30 08:19:00,
2013-01-30 02:24:00,25.0,20.0,29.68,NE,45,4.7,11.4,81,0.00,,,0.00,WUHU21623XXSP,2013-01-30 08:24:00,
2013-01-30 02:29:00,24.8,19.9,29.67,NE,45,1.7,5.1,81,0.00,,,0.00,WUHU21623XXSP,2013-01-30 08:29:00,
2013-01-30 02:34:00,24.6,19.7,29.68,NE,45,3.0,4.7,81,0.00,,,0.00,WUHU21623XXSP,2013-01-30 08:34:00,
2013-01-30 02:39:00,24.6,19.7,29.68,NE,45,4.7,7.4,81,0.00,,,0.00,WUHU21623XXSP,2013-01-30 08:39:00,
2013-01-30 02:44:00,24.6,19.7,29.68,NE,45,3.3,8.3,81,0.00,,,0.00,WUHU21623XXSP,2013-01-30 08:44:00,
2013-01-30 02:49:00,24.6,19.7,29.67,NE,45,2.2,8.3,81,0.00,,,0.00,WUHU21623XXSP,2013-01-30 08:49:00,
2013-01-30 02:54:00,24.6,19.7,29.67,NE,45,6.0,6.3,81,0.00,,,0.00,WUHU21623XXSP,2013-01-30 08:54:00,
2013-01-30 02:59:00,24.6,19.7,29.67,NE,45,4.7,6.3,81,0.00,,,0.00,WUHU21623XXSP,2013-01-30 08:59:00,
2013-01-30 03:04:00,24.6,19.7,29.67,NE,45,2.1,5.8,81,0.00,,,0.00,WUHU21623XXSP,2013-01-30 09:04:00,
2013-01-30 03:09:00,24.6,19.7,29.67,NE,45,2.2,4.5,81,0.00,,,0.00,WUHU21623XXSP,2013-01-30 09:09:00,
2013-01-30 03:14:00,24.6,19.7,29.67,NE,45,2.9,4.3,81,0.00,,,0.00,WUHU21623XXSP,2013-01-30 09:14:00,
2013-01-30 03:19:00,24.6,19.7,29.68,NE,45,2.0,3.1,81,0.00,,,0.00,WUHU21623XXSP,2013-01-30 09:19:00,
2013-01-30 03:24:00,24.6,19.7,29.67,NE,45,3.0,5.8,81,0.00,,,0.00,WUHU21623XXSP,2013-01-30 09:24:00,
2013-01-30 03:29:00,24.6,19.7,29.67,NE,45,2.9,5.8,81,0.00,,,0.00,WUHU21623XXSP,2013-01-30 09:29:00,
2013-01-30 03:34:00,24.6,19.7,29.67,NE,45,3.5,6.9,81,0.00,,,0.00,WUHU21623XXSP,2013-01-30 09:34:00,
2013-01-30 03:39:00,24.6,19.7,29.67,NE,45,2.5,6.9,81,0.00,,,0.00,WUHU21623XXSP,2013-01-30 09:39:00,
2013-01-30 03:44:00,24.6,19.7,29.67,NE,45,3.6,5.4,81,0.00,,,0.00,WUHU21623XXSP,2013-01-30 09:44:00,
2013-01-30 03:49:00,24.6,19.9,29.68,NE,45,1.4,5.4,82,0.00,,,0.00,WUHU21623XXSP,2013-01-30 09:49:00,
2013-01-30 03:54:00,24.6,19.9,29.68,NE,45,6.3,6.3,82,0.00,,,0.00,WUHU21623XXSP,2013-01-30 09:54:00,
2013-01-30 03:59:00,24.6,19.9,29.67,NE,45,5.1,8.3,82,0.00,,,0.00,WUHU21623XXSP,2013-01-30 09:59:00,
2013-01-30 04:04:00,24.8,20.1,29.67,NE,45,2.5,8.3,82,0.00,,,0.00,WUHU21623XXSP,2013-01-30 10:04:00,
2013-01-30 04:09:00,25.0,20.3,29.67,NE,45,1.8,5.1,82,0.00,,,0.00,WUHU21623XXSP,2013-01-30 10:09:00,
2013-01-30 04:14:00,25.0,20.3,29.67,NE,45,2.2,3.6,82,0.00,,,0.00,WUHU21623XXSP,2013-01-30 10:14:00,
2013-01-30 04:19:00,25.0,20.3,29.67,NE,45,1.7,3.6,82,0.00,,,0.00,WUHU21623XXSP,2013-01-30 10:19:00,
2013-01-30 04:24:00,25.0,20.3,29.67,NE,45,2.2,4.0,82,0.00,,,0.00,WUHU21623XXSP,2013-01-30 10:24:00,
2013-01-30 04:29:00,25.0,20.3,29.67,NE,45,1.7,4.0,82,0.00,,,0.00,WUHU21623XXSP,2013-01-30 10:29:00,
2013-01-30 04:34:00,25.0,20.3,29.67,NE,45,1.8,8.3,82,0.00,,,0.00,WUHU21623XXSP,2013-01-30 10:34:00,
2013-01-30 04:39:00,25.0,20.3,29.67,NE,45,12.3,12.3,82,0.00,,,0.00,WUHU21623XXSP,2013-01-30 10:39:00,
2013-01-30 04:44:00,25.0,20.3,29.67,NE,45,2.6,12.3,82,0.00,,,0.00,WUHU21623XXSP,2013-01-30 10:44:00,
2013-01-30 04:49:00,25.0,20.3,29.66,NE,45,4.0,7.4,82,0.00,,,0.00,WUHU21623XXSP,2013-01-30 10:49:00,
2013-01-30 04:55:00,25.0,20.3,29.65,NE,45,2.9,7.4,82,0.00,,,0.00,WUHU21623XXSP,2013-01-30 10:55:00,
2013-01-30 05:00:00,25.0,20.3,29.66,NE,45,3.3,8.1,82,0.00,,,0.00,WUHU21623XXSP,2013-01-30 11:00:00,
2013-01-30 05:05:00,24.6,19.9,29.65,NE,45,5.9,9.8,82,0.00,,,0.00,WUHU21623XXSP,2013-01-30 11:05:00,
2013-01-30 05:10:00,24.6,19.9,29.65,NE,45,4.3,9.8,82,0.00,,,0.00,WUHU21623XXSP,2013-01-30 11:10:00,
2013-01-30 05:15:00,24.6,19.9,29.65,NE,45,6.0,8.5,82,0.00,,,0.00,WUHU21623XXSP,2013-01-30 11:15:00,
2013-01-30 05:20:00,24.4,19.8,29.65,NE,45,4.0,8.5,82,0.00,,,0.00,WUHU21623XXSP,2013-01-30 11:20:00,
2013-01-30 05:25:00,24.4,19.5,29.66,NE,45,6.5,8.3,81,0.00,,,0.00,WUHU21623XXSP,2013-01-30 11:25:00,
2013-01-30 05:30:00,24.1,19.1,29.66,NE,45,3.1,8.3,81,0.00,,,0.00,WUHU21623XXSP,2013-01-30 11:30:00,
2013-01-30 05:35:00,24.1,19.1,29.66,NE,45,2.9,6.0,81,0.00,,,0.00,WUHU21623XXSP,2013-01-30 11:35:00,
2013-01-30 05:40:00,24.1,19.1,29.66,NE,45,5.4,6.0,81,0.00,,,0.00,WUHU21623XXSP,2013-01-30 11:40:00,
2013-01-30 05:45:00,24.1,19.1,29.67,NE,45,5.6,7.2,81,0.00,,,0.00,WUHU21623XXSP,2013-01-30 11:45:00,
2013-01-30 05:50:00,23.9,18.9,29.66,NE,45,3.6,7.2,81,0.00,,,0.00,WUHU21623XXSP,2013-01-30 11:50:00,
2013-01-30 05:55:00,23.9,18.9,29.66,NE,45,4.0,6.7,81,0.00,,,0.00,WUHU21623XXSP,2013-01-30 11:55:00,
2013-01-30 06:00:00,23.7,18.8,29.65,NE,45,3.5,6.7,81,0.00,,,0.00,WUHU21623XXSP,2013-01-30 12:00:00,
2013-01-30 06:05:00,23.5,18.6,29.65,NE,45,5.4,6.7,81,0.00,,,0.00,WUHU21623XXSP,2013-01-30 12:05:00,
2013-01-30 06:10:00,23.5,18.6,29.65,NE,45,4.5,6.5,81,0.00,,,0.00,WUHU21623XXSP,2013-01-30 12:10:00,
2013-01-30 06:15:00,23.4,18.4,29.65,NE,45,2.8,6.3,81,0.00,,,0.00,WUHU21623XXSP,2013-01-30 12:15:00,
2013-01-30 06:20:00,23.2,18.2,29.65,NE,45,3.1,6.7,81,0.00,,,0.00,WUHU21623XXSP,2013-01-30 12:20:00,
2013-01-30 06:25:00,23.0,18.0,29.65,NE,45,1.9,6.7,81,0.00,,,0.00,WUHU21623XXSP,2013-01-30 12:25:00,
2013-01-30 06:30:00,22.8,17.9,29.64,NE,45,2.7,6.7,81,0.00,,,0.00,WUHU21623XXSP,2013-01-30 12:30:00,
2013-01-30 06:35:00,22.8,17.6,29.64,NE,45,3.6,8.1,80,0.00,,,0.00,WUHU21623XXSP,2013-01-30 12:35:00,
2013-01-30 06:40:00,22.6,17.4,29.64,NE,45,5.1,8.5,80,0.00,,,0.00,WUHU21623XXSP,2013-01-30 12:40:00,
2013-01-30 06:45:00,22.3,17.1,29.64,NE,45,6.5,8.5,80,0.00,,,0.00,WUHU21623XXSP,2013-01-30 12:45:00,
2013-01-30 06:50:00,22.3,17.1,29.63,NE,45,5.1,7.6,80,0.00,,,0.00,WUHU21623XXSP,2013-01-30 12:50:00,
2013-01-30 06:55:00,21.9,16.7,29.63,NE,45,4.0,7.6,80,0.00,,,0.00,WUHU21623XXSP,2013-01-30 12:55:00,
2013-01-30 07:00:00,21.9,16.7,29.62,NE,45,4.5,7.6,80,0.00,,,0.00,WUHU21623XXSP,2013-01-30 13:00:00,
2013-01-30 07:05:00,21.7,16.5,29.62,NE,45,4.1,14.3,80,0.00,,,0.00,WUHU21623XXSP,2013-01-30 13:05:00,
2013-01-30 07:10:00,21.7,16.5,29.62,NE,45,4.7,14.3,80,0.00,,,0.00,WUHU21623XXSP,2013-01-30 13:10:00,
2013-01-30 07:15:00,21.6,16.3,29.61,NE,45,7.8,8.3,80,0.00,,,0.00,WUHU21623XXSP,2013-01-30 13:15:00,
2013-01-30 07:20:00,21.4,16.2,29.61,NE,45,4.7,10.3,80,0.00,,,0.00,WUHU21623XXSP,2013-01-30 13:20:00,
2013-01-30 07:25:00,21.4,16.2,29.61,NE,45,4.9,10.3,80,0.00,,,0.00,WUHU21623XXSP,2013-01-30 13:25:00,
2013-01-30 07:30:00,21.0,15.8,29.61,NE,45,5.1,8.5,80,0.00,,,0.00,WUHU21623XXSP,2013-01-30 13:30:00,
2013-01-30 07:35:00,20.5,15.0,29.62,NE,45,2.9,8.3,79,0.00,,,0.00,WUHU21623XXSP,2013-01-30 13:35:00,
2013-01-30 07:40:00,20.5,15.0,29.63,NE,45,2.8,8.1,79,0.00,,,0.00,WUHU21623XXSP,2013-01-30 13:40:00,
2013-01-30 07:45:00,20.1,14.6,29.63,NE,45,2.9,6.7,79,0.00,,,0.00,WUHU21623XXSP,2013-01-30 13:45:00,
2013-01-30 07:50:00,20.1,14.6,29.63,NE,45,2.7,6.7,79,0.00,,,0.00,WUHU21623XXSP,2013-01-30 13:50:00,
2013-01-30 07:55:00,19.9,14.4,29.63,NE,45,3.7,7.8,79,0.00,,,0.00,WUHU21623XXSP,2013-01-30 13:55:00,
2013-01-30 08:00:00,19.6,14.1,29.64,NE,45,4.6,11.4,79,0.00,,,0.00,WUHU21623XXSP,2013-01-30 14:00:00,
2013-01-30 08:05:00,19.6,14.1,29.64,NE,45,4.5,11.4,79,0.00,,,0.00,WUHU21623XXSP,2013-01-30 14:05:00,
2013-01-30 08:10:00,19.6,14.1,29.65,NE,45,5.6,8.1,79,0.00,,,0.00,WUHU21623XXSP,2013-01-30 14:10:00,
2013-01-30 08:15:00,19.4,13.9,29.65,NE,45,4.3,8.1,79,0.00,,,0.00,WUHU21623XXSP,2013-01-30 14:15:00,
2013-01-30 08:20:00,19.2,13.7,29.66,NE,45,4.0,11.2,79,0.00,,,0.00,WUHU21623XXSP,2013-01-30 14:20:00,
2013-01-30 08:25:00,19.0,13.2,29.67,NE,45,7.4,11.9,78,0.00,,,0.00,WUHU21623XXSP,2013-01-30 14:25:00,
2013-01-30 08:30:00,18.9,13.0,29.67,NE,45,3.8,11.9,78,0.00,,,0.00,WUHU21623XXSP,2013-01-30 14:30:00,
2013-01-30 08:35:00,18.9,13.0,29.67,NE,45,4.5,8.5,78,0.00,,,0.00,WUHU21623XXSP,2013-01-30 14:35:00,
2013-01-30 08:41:00,18.7,12.8,29.66,NE,45,9.2,9.2,78,0.00,,,0.00,WUHU21623XXSP,2013-01-30 14:41:00,
2013-01-30 08:46:00,18.7,12.8,29.66,NE,45,5.4,9.2,78,0.00,,,0.00,WUHU21623XXSP,2013-01-30 14:46:00,
2013-01-30 08:51:00,18.7,12.8,29.66,NE,45,3.3,8.3,78,0.00,,,0.00,WUHU21623XXSP,2013-01-30 14:51:00,
2013-01-30 08:56:00,18.5,12.7,29.66,NE,45,2.9,7.6,78,0.00,,,0.00,WUHU21623XXSP,2013-01-30 14:56:00,
2013-01-30 09:01:00,18.5,12.7,29.66,NE,45,7.6,8.9,78,0.00,,,0.00,WUHU21623XXSP,2013-01-30 15:01:00,
2013-01-30 09:06:00,18.5,12.7,29.65,NE,45,3.7,8.9,78,0.00,,,0.00,WUHU21623XXSP,2013-01-30 15:06:00,
2013-01-30 09:11:00,18.5,12.7,29.66,NE,45,5.1,8.1,78,0.00,,,0.00,WUHU21623XXSP,2013-01-30 15:11:00,
2013-01-30 09:16:00,18.5,12.7,29.65,NE,45,2.5,7.2,78,0.00,,,0.00,WUHU21623XXSP,2013-01-30 15:16:00,
2013-01-30 09:21:00,18.7,12.8,29.65,NE,45,3.8,7.2,78,0.00,,,0.00,WUHU21623XXSP,2013-01-30 15:21:00,
2013-01-30 09:26:00,18.5,12.7,29.66,NE,45,8.7,8.9,78,0.00,,,0.00,WUHU21623XXSP,2013-01-30 15:26:00,
2013-01-30 09:31:00,18.7,12.8,29.66,NE,45,2.7,8.9,78,0.00,,,0.00,WUHU21623XXSP,2013-01-30 15:31:00,
2013-01-30 09:36:00,18.7,12.8,29.65,NE,45,2.6,5.4,78,0.00,,,0.00,WUHU21623XXSP,2013-01-30 15:36:00,
2013-01-30 09:41:00,18.9,13.0,29.65,NE,45,4.2,10.7,78,0.00,,,0.00,WUHU21623XXSP,2013-01-30 15:41:00,
2013-01-30 09:46:00,18.7,12.8,29.66,NE,45,3.0,10.7,78,0.00,,,0.00,WUHU21623XXSP,2013-01-30 15:46:00,
2013-01-30 09:51:00,18.9,13.0,29.65,NE,45,4.0,11.0,78,0.00,,,0.00,WUHU21623XXSP,2013-01-30 15:51:00,
2013-01-30 09:56:00,18.9,13.0,29.67,NE,45,3.1,11.0,78,0.00,,,0.00,WUHU21623XXSP,2013-01-30 15:56:00,
2013-01-30 10:01:00,18.9,13.0,29.67,NE,45,3.0,8.3,78,0.00,,,0.00,WUHU21623XXSP,2013-01-30 16:01:00,
2013-01-30 10:06:00,19.0,12.9,29.67,NE,45,2.5,6.9,77,0.00,,,0.00,WUHU21623XXSP,2013-01-30 16:06:00,
2013-01-30 10:11:00,19.0,12.9,29.67,NE,45,4.7,7.6,77,0.00,,,0.00,WUHU21623XXSP,2013-01-30 16:11:00,
2013-01-30 10:16:00,19.0,12.9,29.67,NE,45,3.4,7.6,77,0.00,,,0.00,WUHU21623XXSP,2013-01-30 16:16:00,
2013-01-30 10:21:00,19.0,12.9,29.67,NE,45,7.2,7.6,77,0.00,,,0.00,WUHU21623XXSP,2013-01-30 16:21:00,
2013-01-30 10:26:00,19.0,12.9,29.67,NE,45,4.7,7.8,77,0.00,,,0.00,WUHU21623XXSP,2013-01-30 16:26:00,
2013-01-30 10:31:00,19.0,12.9,29.67,NE,45,3.5,8.9,77,0.00,,,0.00,WUHU21623XXSP,2013-01-30 16:31:00,
2013-01-30 10:36:00,19.2,13.1,29.67,NE,45,4.9,8.9,77,0.00,,,0.00,WUHU21623XXSP,2013-01-30 16:36:00,
2013-01-30 10:41:00,19.2,13.1,29.67,NE,45,4.1,8.1,77,0.00,,,0.00,WUHU21623XXSP,2013-01-30 16:41:00,
2013-01-30 10:46:00,19.2,13.1,29.67,NE,45,3.0,8.7,77,0.00,,,0.00,WUHU21623XXSP,2013-01-30 16:46:00,
2013-01-30 10:51:00,19.2,13.1,29.67,NE,45,3.9,6.0,77,0.00,,,0.00,WUHU21623XXSP,2013-01-30 16:51:00,
2013-01-30 10:56:00,19.2,12.8,29.67,NE,45,3.6,7.2,76,0.00,,,0.00,WUHU21623XXSP,2013-01-30 16:56:00,
2013-01-30 11:01:00,19.2,12.8,29.66,NE,45,4.3,11.9,76,0.00,,,0.00,WUHU21623XXSP,2013-01-30 17:01:00,
2013-01-30 11:06:00,19.2,12.8,29.66,NE,45,3.9,11.9,76,0.00,,,0.00,WUHU21623XXSP,2013-01-30 17:06:00,
2013-01-30 11:11:00,19.2,12.8,29.66,NE,45,3.4,10.3,76,0.00,,,0.00,WUHU21623XXSP,2013-01-30 17:11:00,
2013-01-30 11:16:00,19.2,12.8,29.66,NE,45,7.2,10.3,76,0.00,,,0.00,WUHU21623XXSP,2013-01-30 17:16:00,
2013-01-30 11:21:00,19.2,12.8,29.66,NE,45,5.2,10.3,76,0.00,,,0.00,WUHU21623XXSP,2013-01-30 17:21:00,
2013-01-30 11:26:00,19.2,12.8,29.66,NE,45,8.3,10.3,76,0.00,,,0.00,WUHU21623XXSP,2013-01-30 17:26:00,
2013-01-30 11:31:00,19.2,12.8,29.66,NE,45,3.6,10.5,76,0.00,,,0.00,WUHU21623XXSP,2013-01-30 17:31:00,
2013-01-30 11:36:00,19.2,12.8,29.66,NE,45,2.2,10.5,76,0.00,,,0.00,WUHU21623XXSP,2013-01-30 17:36:00,
2013-01-30 11:41:00,19.2,12.8,29.66,NE,45,3.9,8.9,76,0.00,,,0.00,WUHU21623XXSP,2013-01-30 17:41:00,
2013-01-30 11:46:00,19.2,12.8,29.66,NE,45,8.1,8.9,76,0.00,,,0.00,WUHU21623XXSP,2013-01-30 17:46:00,
2013-01-30 11:51:00,19.2,12.8,29.66,NE,45,3.1,8.9,76,0.00,,,0.00,WUHU21623XXSP,2013-01-30 17:51:00,
2013-01-30 11:56:00,19.2,12.8,29.66,NE,45,4.0,7.2,76,0.00,,,0.00,WUHU21623XXSP,2013-01-30 17:56:00,
2013-01-30 12:02:00,19.2,12.5,29.66,NE,45,3.7,7.4,75,0.00,,,0.00,WUHU21623XXSP,2013-01-30 18:02:00,
2013-01-30 12:07:00,19.2,12.5,29.66,NE,45,3.6,7.6,75,0.00,,,0.00,WUHU21623XXSP,2013-01-30 18:07:00,
2013-01-30 12:12:00,19.2,12.5,29.66,NE,45,3.6,7.6,75,0.00,,,0.00,WUHU21623XXSP,2013-01-30 18:12:00,
2013-01-30 12:17:00,19.2,12.5,29.66,NE,45,3.7,6.0,75,0.00,,,0.00,WUHU21623XXSP,2013-01-30 18:17:00,
2013-01-30 12:22:00,19.2,12.5,29.66,NE,45,3.6,6.3,75,0.00,,,0.00,WUHU21623XXSP,2013-01-30 18:22:00,
2013-01-30 12:27:00,19.2,12.5,29.66,NE,45,3.2,8.1,75,0.00,,,0.00,WUHU21623XXSP,2013-01-30 18:27:00,
2013-01-30 12:32:00,19.2,12.5,29.66,NE,45,8.9,8.9,75,0.00,,,0.00,WUHU21623XXSP,2013-01-30 18:32:00,
2013-01-30 12:37:00,19.2,12.5,29.66,NE,45,3.0,8.9,75,0.00,,,0.00,WUHU21623XXSP,2013-01-30 18:37:00,
2013-01-30 12:42:00,19.2,12.5,29.66,NE,45,3.8,7.4,75,0.00,,,0.00,WUHU21623XXSP,2013-01-30 18:42:00,
2013-01-30 12:47:00,19.2,12.5,29.66,NE,45,4.3,7.8,75,0.00,,,0.00,WUHU21623XXSP,2013-01-30 18:47:00,
2013-01-30 12:52:00,19.2,12.5,29.66,NE,45,3.1,7.8,75,0.00,,,0.00,WUHU21623XXSP,2013-01-30 18:52:00,
2013-01-30 12:57:00,19.2,12.5,29.66,NE,45,5.2,8.7,75,0.00,,,0.00,WUHU21623XXSP,2013-01-30 18:57:00,
2013-01-30 13:02:00,19.2,12.5,29.66,NE,45,4.2,8.7,75,0.00,,,0.00,WUHU21623XXSP,2013-01-30 19:02:00,
2013-01-30 13:07:00,19.2,12.5,29.66,NE,45,9.2,15.7,75,0.00,,,0.00,WUHU21623XXSP,2013-01-30 19:07:00,
2013-01-30 13:12:00,19.2,12.5,29.65,NE,45,4.6,15.7,75,0.00,,,0.00,WUHU21623XXSP,2013-01-30 19:12:00,
2013-01-30 13:17:00,19.0,12.3,29.65,NE,45,4.7,8.3,75,0.00,,,0.00,WUHU21623XXSP,2013-01-30 19:17:00,
2013-01-30 13:22:00,19.2,12.5,29.65,NE,45,3.0,9.4,75,0.00,,,0.00,WUHU21623XXSP,2013-01-30 19:22:00,
2013-01-30 13:27:00,19.2,12.5,29.65,NE,45,7.4,9.4,75,0.00,,,0.00,WUHU21623XXSP,2013-01-30 19:27:00,
2013-01-30 13:32:00,19.2,12.5,29.66,NE,45,3.4,7.4,75,0.00,,,0.00,WUHU21623XXSP,2013-01-30 19:32:00,
2013-01-30 13:37:00,19.2,12.5,29.66,NE,45,4.8,7.6,75,0.00,,,0.00,WUHU21623XXSP,2013-01-30 19:37:00,
2013-01-30 13:42:00,19.0,12.0,29.65,NE,45,6.9,8.1,74,0.00,,,0.00,WUHU21623XXSP,2013-01-30 19:42:00,
2013-01-30 13:47:00,18.9,11.8,29.66,NE,45,4.3,9.8,74,0.00,,,0.00,WUHU21623XXSP,2013-01-30 19:47:00,
2013-01-30 13:52:00,18.7,11.7,29.66,NE,45,4.6,9.8,74,0.00,,,0.00,WUHU21623XXSP,2013-01-30 19:52:00,
2013-01-30 13:57:00,18.5,11.5,29.66,NE,45,4.0,12.1,74,0.00,,,0.00,WUHU21623XXSP,2013-01-30 19:57:00,
2013-01-30 14:02:00,18.7,11.7,29.65,NE,45,2.9,12.1,74,0.00,,,0.00,WUHU21623XXSP,2013-01-30 20:02:00,
2013-01-30 14:07:00,18.7,11.7,29.65,NE,45,5.4,17.2,74,0.00,,,0.00,WUHU21623XXSP,2013-01-30 20:07:00,
2013-01-30 14:12:00,18.7,11.4,29.66,NE,45,5.0,17.2,73,0.00,,,0.00,WUHU21623XXSP,2013-01-30 20:12:00,
2013-01-30 14:17:00,18.7,11.4,29.65,NE,45,2.9,7.6,73,0.00,,,0.00,WUHU21623XXSP,2013-01-30 20:17:00,
2013-01-30 14:22:00,18.9,11.5,29.66,NE,45,4.5,6.7,73,0.00,,,0.00,WUHU21623XXSP,2013-01-30 20:22:00,
2013-01-30 14:27:00,18.9,11.5,29.66,NE,45,6.3,9.2,73,0.00,,,0.00,WUHU21623XXSP,2013-01-30 20:27:00,
2013-01-30 14:32:00,18.7,11.4,29.66,NE,45,5.6,9.2,73,0.00,,,0.00,WUHU21623XXSP,2013-01-30 20:32:00,
2013-01-30 14:37:00,18.7,11.4,29.66,NE,45,8.1,8.1,73,0.00,,,0.00,WUHU21623XXSP,2013-01-30 20:37:00,
2013-01-30 14:42:00,18.7,11.4,29.66,NE,45,9.8,9.8,73,0.00,,,0.00,WUHU21623XXSP,2013-01-30 20:42:00,
2013-01-30 14:47:00,18.7,11.4,29.66,NE,45,2.8,12.1,73,0.00,,,0.00,WUHU21623XXSP,2013-01-30 20:47:00,
2013-01-30 14:52:00,18.7,11.4,29.65,NE,45,6.9,12.1,73,0.00,,,0.00,WUHU21623XXSP,2013-01-30 20:52:00,
2013-01-30 14:57:00,18.7,11.4,29.66,NE,45,5.1,9.8,73,0.00,,,0.00,WUHU21623XXSP,2013-01-30 20:57:00,
2013-01-30 15:02:00,18.7,11.4,29.66,NE,45,2.9,6.5,73,0.00,,,0.00,WUHU21623XXSP,2013-01-30 21:02:00,
2013-01-30 15:07:00,18.7,11.4,29.66,NE,45,5.1,6.7,73,0.00,,,0.00,WUHU21623XXSP,2013-01-30 21:07:00,
2013-01-30 15:12:00,18.7,11.4,29.65,NE,45,5.1,9.4,73,0.00,,,0.00,WUHU21623XXSP,2013-01-30 21:12:00,
2013-01-30 15:17:00,18.7,11.4,29.66,NE,45,4.9,9.4,73,0.00,,,0.00,WUHU21623XXSP,2013-01-30 21:17:00,
2013-01-30 15:22:00,18.5,11.2,29.66,NE,45,3.9,8.9,73,0.00,,,0.00,WUHU21623XXSP,2013-01-30 21:22:00,
2013-01-30 15:27:00,18.5,11.2,29.66,NE,45,4.3,10.5,73,0.00,,,0.00,WUHU21623XXSP,2013-01-30 21:27:00,
2013-01-30 15:32:00,18.5,11.2,29.65,NE,45,5.2,10.5,73,0.00,,,0.00,WUHU21623XXSP,2013-01-30 21:32:00,
2013-01-30 15:37:00,18.5,11.5,29.66,NE,45,4.2,10.5,74,0.00,,,0.00,WUHU21623XXSP,2013-01-30 21:37:00,
2013-01-30 15:42:00,18.5,11.5,29.66,NE,45,5.6,10.1,74,0.00,,,0.00,WUHU21623XXSP,2013-01-30 21:42:00,
2013-01-30 15:47:00,18.5,11.5,29.66,NE,45,5.4,11.4,74,0.00,,,0.00,WUHU21623XXSP,2013-01-30 21:47:00,
2013-01-30 15:52:00,18.5,11.5,29.67,NE,45,3.3,11.4,74,0.00,,,0.00,WUHU21623XXSP,2013-01-30 21:52:00,
2013-01-30 15:57:00,18.3,11.3,29.66,NE,45,6.5,8.1,74,0.00,,,0.00,WUHU21623XXSP,2013-01-30 21:57:00,
2013-01-30 16:02:00,18.3,11.3,29.66,NE,45,7.9,16.6,74,0.00,,,0.00,WUHU21623XXSP,2013-01-30 22:02:00,
2013-01-30 16:07:00,18.3,11.0,29.67,NE,45,7.9,16.6,73,0.00,,,0.00,WUHU21623XXSP,2013-01-30 22:07:00,
2013-01-30 16:12:00,18.3,11.0,29.66,NE,45,5.5,14.3,73,0.00,,,0.00,WUHU21623XXSP,2013-01-30 22:12:00,
2013-01-30 16:17:00,18.1,10.8,29.67,NE,45,5.5,15.4,73,0.00,,,0.00,WUHU21623XXSP,2013-01-30 22:17:00,
2013-01-30 16:22:00,18.0,10.7,29.67,NE,45,5.8,15.4,73,0.00,,,0.00,WUHU21623XXSP,2013-01-30 22:22:00,
2013-01-30 16:27:00,17.8,10.5,29.67,NE,45,4.2,9.6,73,0.00,,,0.00,WUHU21623XXSP,2013-01-30 22:27:00,
2013-01-30 16:32:00,17.8,10.5,29.67,NE,45,4.1,7.6,73,0.00,,,0.00,WUHU21623XXSP,2013-01-30 22:32:00,
2013-01-30 16:37:00,17.8,10.5,29.67,NE,45,4.7,8.5,73,0.00,,,0.00,WUHU21623XXSP,2013-01-30 22:37:00,
2013-01-30 16:42:00,17.4,10.2,29.67,NE,45,5.6,8.7,73,0.00,,,0.00,WUHU21623XXSP,2013-01-30 22:42:00,
2013-01-30 16:47:00,17.4,10.2,29.67,NE,45,3.8,8.7,73,0.00,,,0.00,WUHU21623XXSP,2013-01-30 22:47:00,
2013-01-30 16:52:00,17.4,10.5,29.67,NE,45,4.4,8.9,74,0.00,,,0.00,WUHU21623XXSP,2013-01-30 22:52:00,
2013-01-30 16:57:00,17.2,10.3,29.67,NE,45,6.4,8.9,74,0.00,,,0.00,WUHU21623XXSP,2013-01-30 22:57:00,
2013-01-30 17:02:00,17.2,10.3,29.66,NE,45,5.4,9.4,74,0.00,,,0.00,WUHU21623XXSP,2013-01-30 23:02:00,
2013-01-30 17:07:00,17.2,10.3,29.67,NE,45,3.2,9.4,74,0.00,,,0.00,WUHU21623XXSP,2013-01-30 23:07:00,
2013-01-30 17:12:00,17.2,10.3,29.66,NE,45,5.1,9.8,74,0.00,,,0.00,WUHU21623XXSP,2013-01-30 23:12:00,
2013-01-30 17:17:00,17.2,10.3,29.66,NE,45,6.3,9.8,74,0.00,,,0.00,WUHU21623XXSP,2013-01-30 23:17:00,
2013-01-30 17:22:00,16.9,9.9,29.66,NE,45,3.3,9.2,74,0.00,,,0.00,WUHU21623XXSP,2013-01-30 23:22:00,
2013-01-30 17:27:00,16.9,9.9,29.66,NE,45,7.4,7.4,74,0.00,,,0.00,WUHU21623XXSP,2013-01-30 23:27:00,
2013-01-30 17:32:00,16.9,9.9,29.66,NE,45,5.2,9.2,74,0.00,,,0.00,WUHU21623XXSP,2013-01-30 23:32:00,
2013-01-30 17:37:00,16.9,9.9,29.66,NE,45,7.6,11.9,74,0.00,,,0.00,WUHU21623XXSP,2013-01-30 23:37:00,
2013-01-30 17:42:00,16.9,10.3,29.66,NE,45,4.9,11.9,75,0.00,,,0.00,WUHU21623XXSP,2013-01-30 23:42:00,
2013-01-30 17:47:00,16.5,9.9,29.66,NE,45,7.4,10.3,75,0.00,,,0.00,WUHU21623XXSP,2013-01-30 23:47:00,
2013-01-30 17:52:00,16.5,9.9,29.66,NE,45,8.9,9.6,75,0.00,,,0.00,WUHU21623XXSP,2013-01-30 23:52:00,
2013-01-30 17:57:00,16.3,10.0,29.66,NE,45,4.9,8.9,76,0.00,,,0.00,WUHU21623XXSP,2013-01-30 23:57:00,
2013-01-30 18:02:00,16.3,9.7,29.66,NE,45,5.4,8.9,75,0.00,,,0.00,WUHU21623XXSP,2013-01-31 00:02:00,
2013-01-30 18:07:00,16.3,9.7,29.66,NE,45,4.5,10.3,75,0.00,,,0.00,WUHU21623XXSP,2013-01-31 00:07:00,
2013-01-30 18:12:00,16.2,9.6,29.66,NE,45,5.4,10.3,75,0.00,,,0.00,WUHU21623XXSP,2013-01-31 00:12:00,
2013-01-30 18:17:00,16.0,9.4,29.67,NE,45,4.6,11.4,75,0.00,,,0.00,WUHU21623XXSP,2013-01-31 00:17:00,
2013-01-30 18:22:00,16.0,9.4,29.66,NE,45,6.3,11.4,75,0.00,,,0.00,WUHU21623XXSP,2013-01-31 00:22:00,
2013-01-30 18:27:00,15.8,9.2,29.66,NE,45,3.2,8.1,75,0.00,,,0.00,WUHU21623XXSP,2013-01-31 00:27:00,
2013-01-30 18:32:00,15.6,9.1,29.67,NE,45,3.1,7.4,75,0.00,,,0.00,WUHU21623XXSP,2013-01-31 00:32:00,
2013-01-30 18:37:00,15.6,9.1,29.66,NE,45,5.7,7.8,75,0.00,,,0.00,WUHU21623XXSP,2013-01-31 00:37:00,
2013-01-30 18:42:00,15.6,9.1,29.67,NE,45,4.0,9.6,75,0.00,,,0.00,WUHU21623XXSP,2013-01-31 00:42:00,
2013-01-30 18:47:00,15.6,9.1,29.66,NE,45,4.7,9.6,75,0.00,,,0.00,WUHU21623XXSP,2013-01-31 00:47:00,
2013-01-30 18:52:00,15.4,8.9,29.66,NE,45,4.4,9.2,75,0.00,,,0.00,WUHU21623XXSP,2013-01-31 00:52:00,
2013-01-30 18:57:00,15.4,8.9,29.67,NE,45,2.9,10.5,75,0.00,,,0.00,WUHU21623XXSP,2013-01-31 00:57:00,
2013-01-30 19:02:00,15.3,8.7,29.67,NE,45,5.1,10.5,75,0.00,,,0.00,WUHU21623XXSP,2013-01-31 01:02:00,
2013-01-30 19:07:00,15.3,8.7,29.66,NE,45,3.4,8.5,75,0.00,,,0.00,WUHU21623XXSP,2013-01-31 01:07:00,
2013-01-30 19:12:00,15.1,8.5,29.66,NE,45,2.5,6.9,75,0.00,,,0.00,WUHU21623XXSP,2013-01-31 01:12:00,
2013-01-30 19:17:00,14.9,8.4,29.67,NE,45,4.3,8.9,75,0.00,,,0.00,WUHU21623XXSP,2013-01-31 01:17:00,
2013-01-30 19:22:00,14.7,8.2,29.67,NE,45,4.5,8.9,75,0.00,,,0.00,WUHU21623XXSP,2013-01-31 01:22:00,
2013-01-30 19:28:00,14.7,8.2,29.67,NE,45,3.2,7.2,75,0.00,,,0.00,WUHU21623XXSP,2013-01-31 01:28:00,
2013-01-30 19:33:00,14.7,8.2,29.67,NE,45,3.6,6.0,75,0.00,,,0.00,WUHU21623XXSP,2013-01-31 01:33:00,
2013-01-30 19:38:00,14.7,8.5,29.67,NE,45,4.1,6.0,76,0.00,,,0.00,WUHU21623XXSP,2013-01-31 01:38:00,
2013-01-30 19:43:00,14.7,8.5,29.67,NE,45,4.7,9.8,76,0.00,,,0.00,WUHU21623XXSP,2013-01-31 01:43:00,
2013-01-30 19:48:00,14.7,8.5,29.67,NE,45,7.2,9.8,76,0.00,,,0.00,WUHU21623XXSP,2013-01-31 01:48:00,
2013-01-30 19:53:00,14.7,8.5,29.67,NE,45,4.3,8.3,76,0.00,,,0.00,WUHU21623XXSP,2013-01-31 01:53:00,
2013-01-30 19:58:00,14.7,8.5,29.67,NE,45,8.9,8.9,76,0.00,,,0.00,WUHU21623XXSP,2013-01-31 01:58:00,
2013-01-30 20:03:00,14.5,8.3,29.67,NE,45,6.3,11.0,76,0.00,,,0.00,WUHU21623XXSP,2013-01-31 02:03:00,
2013-01-30 20:08:00,14.5,8.3,29.67,NE,45,6.3,11.0,76,0.00,,,0.00,WUHU21623XXSP,2013-01-31 02:08:00,
2013-01-30 20:13:00,14.4,7.9,29.67,NE,45,4.3,10.1,75,0.00,,,0.00,WUHU21623XXSP,2013-01-31 02:13:00,
2013-01-30 20:18:00,14.4,7.9,29.67,NE,45,4.3,10.1,75,0.00,,,0.00,WUHU21623XXSP,2013-01-31 02:18:00,
2013-01-30 20:23:00,14.2,7.7,29.67,NE,45,6.2,10.3,75,0.00,,,0.00,WUHU21623XXSP,2013-01-31 02:23:00,
2013-01-30 20:28:00,14.2,7.7,29.67,NE,45,6.0,10.3,75,0.00,,,0.00,WUHU21623XXSP,2013-01-31 02:28:00,
2013-01-30 20:33:00,14.2,7.7,29.67,NE,45,5.8,7.4,75,0.00,,,0.00,WUHU21623XXSP,2013-01-31 02:33:00,
2013-01-30 20:38:00,14.2,7.7,29.67,NE,45,7.4,11.2,75,0.00,,,0.00,WUHU21623XXSP,2013-01-31 02:38:00,
2013-01-30 20:43:00,13.8,7.3,29.67,NE,45,9.4,11.2,75,0.00,,,0.00,WUHU21623XXSP,2013-01-31 02:43:00,
2013-01-30 20:48:00,13.8,7.3,29.67,NE,45,3.9,11.9,75,0.00,,,0.00,WUHU21623XXSP,2013-01-31 02:48:00,
2013-01-30 20:53:00,13.8,7.3,29.68,NE,45,4.4,11.9,75,0.00,,,0.00,WUHU21623XXSP,2013-01-31 02:53:00,
2013-01-30 20:58:00,13.8,7.3,29.68,NE,45,2.9,10.5,75,0.00,,,0.00,WUHU21623XXSP,2013-01-31 02:58:00,
2013-01-30 21:03:00,13.8,7.3,29.68,NE,45,4.3,10.5,75,0.00,,,0.00,WUHU21623XXSP,2013-01-31 03:03:00,
2013-01-30 21:08:00,13.8,7.3,29.68,NE,45,6.0,7.4,75,0.00,,,0.00,WUHU21623XXSP,2013-01-31 03:08:00,
2013-01-30 21:13:00,13.6,7.2,29.68,NE,45,9.6,9.8,75,0.00,,,0.00,WUHU21623XXSP,2013-01-31 03:13:00,
2013-01-30 21:18:00,13.6,7.2,29.68,NE,45,3.5,9.8,75,0.00,,,0.00,WUHU21623XXSP,2013-01-31 03:18:00,
2013-01-30 21:23:00,13.6,7.2,29.68,NE,45,4.9,9.2,75,0.00,,,0.00,WUHU21623XXSP,2013-01-31 03:23:00,
2013-01-30 21:28:00,13.6,7.2,29.69,NE,45,5.2,15.4,75,0.00,,,0.00,WUHU21623XXSP,2013-01-31 03:28:00,
2013-01-30 21:33:00,13.6,7.2,29.69,NE,45,8.3,15.4,75,0.00,,,0.00,WUHU21623XXSP,2013-01-31 03:33:00,
2013-01-30 21:38:00,13.3,6.8,29.69,NE,45,4.9,10.3,75,0.00,,,0.00,WUHU21623XXSP,2013-01-31 03:38:00,
2013-01-30 21:43:00,13.3,6.8,29.69,NE,45,8.7,12.1,75,0.00,,,0.00,WUHU21623XXSP,2013-01-31 03:43:00,
2013-01-30 21:48:00,13.3,6.8,29.69,NE,45,6.0,12.1,75,0.00,,,0.00,WUHU21623XXSP,2013-01-31 03:48:00,
2013-01-30 21:53:00,13.1,6.6,29.69,NE,45,6.0,9.8,75,0.00,,,0.00,WUHU21623XXSP,2013-01-31 03:53:00,
2013-01-30 21:58:00,13.1,6.6,29.69,NE,45,4.2,8.5,75,0.00,,,0.00,WUHU21623XXSP,2013-01-31 03:58:00,
2013-01-30 22:03:00,13.1,6.6,29.69,NE,45,8.1,8.1,75,0.00,,,0.00,WUHU21623XXSP,2013-01-31 04:03:00,
2013-01-30 22:08:00,12.9,6.4,29.69,NE,45,5.7,9.6,75,0.00,,,0.00,WUHU21623XXSP,2013-01-31 04:08:00,
2013-01-30 22:13:00,12.9,6.4,29.69,NE,45,4.5,9.6,75,0.00,,,0.00,WUHU21623XXSP,2013-01-31 04:13:00,
2013-01-30 22:18:00,12.7,6.3,29.69,NE,45,5.4,13.4,75,0.00,,,0.00,WUHU21623XXSP,2013-01-31 04:18:00,
2013-01-30 22:23:00,12.7,6.3,29.69,NE,45,5.6,13.4,75,0.00,,,0.00,WUHU21623XXSP,2013-01-31 04:23:00,
2013-01-30 22:28:00,12.7,6.3,29.69,NE,45,8.3,12.5,75,0.00,,,0.00,WUHU21623XXSP,2013-01-31 04:28:00,
2013-01-30 22:33:00,12.6,6.1,29.69,NE,45,6.9,16.6,75,0.00,,,0.00,WUHU21623XXSP,2013-01-31 04:33:00,
2013-01-30 22:38:00,12.6,6.1,29.69,NE,45,5.8,16.6,75,0.00,,,0.00,WUHU21623XXSP,2013-01-31 04:38:00,
2013-01-30 22:43:00,12.4,5.9,29.69,NE,45,4.3,8.1,75,0.00,,,0.00,WUHU21623XXSP,2013-01-31 04:43:00,
2013-01-30 22:48:00,12.2,5.7,29.69,NE,45,4.7,8.1,75,0.00,,,0.00,WUHU21623XXSP,2013-01-31 04:48:00,
2013-01-30 22:53:00,12.2,5.7,29.69,NE,45,3.6,10.5,75,0.00,,,0.00,WUHU21623XXSP,2013-01-31 04:53:00,
2013-01-30 22:58:00,12.0,5.5,29.70,NE,45,2.8,10.5,75,0.00,,,0.00,WUHU21623XXSP,2013-01-31 04:58:00,
2013-01-30 23:00:00,12.0,5.5,29.70,NE,45,7.2,10.3,75,0.00,,,0.00,WUHU21623XXSP,2013-01-31 05:00:00,
2013-01-30 23:02:00,12.0,5.5,29.70,NE,45,7.2,10.3,75,0.00,,,0.00,WUHU21623XXSP,2013-01-31 05:02:00,
2013-01-30 23:03:00,12.0,5.5,29.70,NE,45,7.1,10.3,75,0.00,,,0.00,WUHU21623XXSP,2013-01-31 05:03:00,
2013-01-30 23:08:00,11.8,5.4,29.70,NE,45,4.0,9.6,75,0.00,,,0.00,WUHU21623XXSP,2013-01-31 05:08:00,
2013-01-30 23:13:00,11.5,5.0,29.70,NE,45,6.9,10.3,75,0.00,,,0.00,WUHU21623XXSP,2013-01-31 05:13:00,
2013-01-30 23:18:00,11.3,4.8,29.71,NE,45,4.2,10.3,75,0.00,,,0.00,WUHU21623XXSP,2013-01-31 05:18:00,
2013-01-30 23:23:00,11.1,4.6,29.71,NE,45,1.3,8.3,75,0.00,,,0.00,WUHU21623XXSP,2013-01-31 05:23:00,
2013-01-30 23:28:00,11.1,4.4,29.71,NE,45,2.5,6.5,74,0.00,,,0.00,WUHU21623XXSP,2013-01-31 05:28:00,
2013-01-30 23:33:00,10.9,4.2,29.71,NE,45,6.2,8.5,74,0.00,,,0.00,WUHU21623XXSP,2013-01-31 05:33:00,
2013-01-30 23:38:00,10.6,3.8,29.71,NE,45,3.1,11.9,74,0.00,,,0.00,WUHU21623XXSP,2013-01-31 05:38:00,
2013-01-30 23:43:00,10.6,3.8,29.72,NE,45,5.4,11.9,74,0.00,,,0.00,WUHU21623XXSP,2013-01-31 05:43:00,
2013-01-30 23:48:00,10.2,3.5,29.72,NE,45,4.7,10.7,74,0.00,,,0.00,WUHU21623XXSP,2013-01-31 05:48:00,
2013-01-30 23:53:00,10.0,3.3,29.72,NE,45,5.4,11.0,74,0.00,,,0.00,WUHU21623XXSP,2013-01-31 05:53:00,
2013-01-30 23:58:00,9.7,3.0,29.73,NE,45,2.5,11.0,74,0.00,,,0.00,WUHU21623XXSP,2013-01-31 05:58:00,